sensor_id;sensor_type;location;lat;lon;timestamp;temperature;humidity
5842;DHT22;2947;52.276;9.946;2023-03-01T00:01:48;-0.20;1.00
5842;DHT22;2947;52.276;9.946;2023-03-01T00:04:14;-0.20;1.00
5842;DHT22;2947;52.276;9.946;2023-03-01T00:06:39;-0.20;1.00
5842;DHT22;2947;52.276;9.946;2023-03-01T00:09:05;-0.20;1.00
5842;DHT22;2947;52.276;9.946;2023-03-01T00:11:32;-0.20;1.00
5842;DHT22;2947;52.276;9.946;2023-03-01T00:14:00;-0.20;1.00
5842;DHT22;2947;52.276;9.946;2023-03-01T00:16:27;-0.20;1.00
5842;DHT22;2947;52.276;9.946;2023-03-01T00:18:55;-0.20;1.00
5842;DHT22;2947;52.276;9.946;2023-03-01T00:21:23;-0.30;1.00
5842;DHT22;2947;52.276;9.946;2023-03-01T00:23:48;-0.40;1.00
5842;DHT22;2947;52.276;9.946;2023-03-01T00:26:16;-0.40;1.00
5842;DHT22;2947;52.276;9.946;2023-03-01T00:28:43;-0.50;1.00
5842;DHT22;2947;52.276;9.946;2023-03-01T00:31:12;-0.60;99.90
5842;DHT22;2947;52.276;9.946;2023-03-01T00:33:40;-0.60;99.90
5842;DHT22;2947;52.276;9.946;2023-03-01T00:36:07;-0.60;99.90
5842;DHT22;2947;52.276;9.946;2023-03-01T00:38:38;-0.50;99.90
5842;DHT22;2947;52.276;9.946;2023-03-01T00:41:11;-0.60;99.90
5842;DHT22;2947;52.276;9.946;2023-03-01T00:43:38;0.20;1.00
5842;DHT22;2947;52.276;9.946;2023-03-01T00:46:06;-0.60;1.00
5842;DHT22;2947;52.276;9.946;2023-03-01T00:48:37;-0.60;1.00
5842;DHT22;2947;52.276;9.946;2023-03-01T00:51:11;-0.70;1.00
5842;DHT22;2947;52.276;9.946;2023-03-01T00:53:45;-0.70;1.00
5842;DHT22;2947;52.276;9.946;2023-03-01T00:56:13;-0.70;54.10
5842;DHT22;2947;52.276;9.946;2023-03-01T00:58:39;-0.80;99.90
5842;DHT22;2947;52.276;9.946;2023-03-01T01:01:27;-0.70;99.90
5842;DHT22;2947;52.276;9.946;2023-03-01T01:03:59;-0.70;98.10
5842;DHT22;2947;52.276;9.946;2023-03-01T01:06:27;-0.80;99.90
5842;DHT22;2947;52.276;9.946;2023-03-01T01:08:55;-0.80;99.90
5842;DHT22;2947;52.276;9.946;2023-03-01T01:11:23;-0.90;1.00
5842;DHT22;2947;52.276;9.946;2023-03-01T01:13:50;-0.90;9.20
5842;DHT22;2947;52.276;9.946;2023-03-01T01:16:18;-0.90;99.90
5842;DHT22;2947;52.276;9.946;2023-03-01T01:18:45;-1.00;99.90
5842;DHT22;2947;52.276;9.946;2023-03-01T01:21:13;-1.00;99.90
5842;DHT22;2947;52.276;9.946;2023-03-01T01:23:40;-0.90;99.90
5842;DHT22;2947;52.276;9.946;2023-03-01T01:26:12;-1.00;99.90
5842;DHT22;2947;52.276;9.946;2023-03-01T01:28:39;-0.90;99.90
5842;DHT22;2947;52.276;9.946;2023-03-01T01:31:05;-1.00;99.90
5842;DHT22;2947;52.276;9.946;2023-03-01T01:33:31;-1.00;99.90
5842;DHT22;2947;52.276;9.946;2023-03-01T01:35:57;-1.00;99.90
5842;DHT22;2947;52.276;9.946;2023-03-01T01:38:23;-1.00;99.90
5842;DHT22;2947;52.276;9.946;2023-03-01T01:40:50;-1.00;99.90
5842;DHT22;2947;52.276;9.946;2023-03-01T01:43:27;-1.00;1.00
5842;DHT22;2947;52.276;9.946;2023-03-01T01:45:57;-1.00;1.00
5842;DHT22;2947;52.276;9.946;2023-03-01T01:48:32;-1.00;1.00
5842;DHT22;2947;52.276;9.946;2023-03-01T01:51:09;-1.00;1.00
5842;DHT22;2947;52.276;9.946;2023-03-01T01:53:38;-1.00;1.00
5842;DHT22;2947;52.276;9.946;2023-03-01T01:56:06;-1.00;83.60
5842;DHT22;2947;52.276;9.946;2023-03-01T01:58:33;-1.00;1.00
5842;DHT22;2947;52.276;9.946;2023-03-01T02:00:59;-1.00;1.00
5842;DHT22;2947;52.276;9.946;2023-03-01T02:03:32;-1.00;1.00
5842;DHT22;2947;52.276;9.946;2023-03-01T02:08:56;-1.00;99.90
5842;DHT22;2947;52.276;9.946;2023-03-01T02:11:24;-1.10;99.90
5842;DHT22;2947;52.276;9.946;2023-03-01T02:13:52;-1.10;1.00
5842;DHT22;2947;52.276;9.946;2023-03-01T02:16:19;-1.20;1.00
5842;DHT22;2947;52.276;9.946;2023-03-01T02:18:45;-1.20;19.40
5842;DHT22;2947;52.276;9.946;2023-03-01T02:21:20;-1.20;1.00
5842;DHT22;2947;52.276;9.946;2023-03-01T02:24:28;-1.20;1.00
5842;DHT22;2947;52.276;9.946;2023-03-01T02:27:03;-1.20;1.00
5842;DHT22;2947;52.276;9.946;2023-03-01T02:29:29;-1.20;99.90
5842;DHT22;2947;52.276;9.946;2023-03-01T02:31:57;-1.20;99.90
5842;DHT22;2947;52.276;9.946;2023-03-01T02:34:25;-1.20;99.90
5842;DHT22;2947;52.276;9.946;2023-03-01T02:39:44;-1.40;99.90
5842;DHT22;2947;52.276;9.946;2023-03-01T02:42:15;-1.50;1.00
5842;DHT22;2947;52.276;9.946;2023-03-01T02:44:45;-1.50;1.00
5842;DHT22;2947;52.276;9.946;2023-03-01T02:47:11;-1.60;1.00
5842;DHT22;2947;52.276;9.946;2023-03-01T02:49:37;-1.50;99.90
5842;DHT22;2947;52.276;9.946;2023-03-01T02:52:30;-1.60;99.90
5842;DHT22;2947;52.276;9.946;2023-03-01T02:55:06;-1.60;99.90
5842;DHT22;2947;52.276;9.946;2023-03-01T02:57:35;-1.60;1.00
5842;DHT22;2947;52.276;9.946;2023-03-01T03:00:08;-1.70;99.90
5842;DHT22;2947;52.276;9.946;2023-03-01T03:02:50;-1.80;35.70
5842;DHT22;2947;52.276;9.946;2023-03-01T03:05:28;-1.80;1.00
5842;DHT22;2947;52.276;9.946;2023-03-01T03:07:56;-1.90;99.90
5842;DHT22;2947;52.276;9.946;2023-03-01T03:10:38;-1.80;99.90
5842;DHT22;2947;52.276;9.946;2023-03-01T03:13:13;-1.90;1.00
5842;DHT22;2947;52.276;9.946;2023-03-01T03:15:42;-1.90;99.90
5842;DHT22;2947;52.276;9.946;2023-03-01T03:18:11;-1.90;1.00
5842;DHT22;2947;52.276;9.946;2023-03-01T03:20:40;-1.90;1.00
5842;DHT22;2947;52.276;9.946;2023-03-01T03:23:06;-2.00;1.00
5842;DHT22;2947;52.276;9.946;2023-03-01T03:25:32;-2.00;1.00
5842;DHT22;2947;52.276;9.946;2023-03-01T03:27:58;-2.00;1.00
5842;DHT22;2947;52.276;9.946;2023-03-01T03:30:27;-2.00;54.50
5842;DHT22;2947;52.276;9.946;2023-03-01T03:32:55;-2.10;36.40
5842;DHT22;2947;52.276;9.946;2023-03-01T03:35:30;-2.00;45.80
5842;DHT22;2947;52.276;9.946;2023-03-01T03:38:00;-2.00;1.00
5842;DHT22;2947;52.276;9.946;2023-03-01T03:40:40;-2.00;1.00
5842;DHT22;2947;52.276;9.946;2023-03-01T03:43:13;-2.00;1.00
5842;DHT22;2947;52.276;9.946;2023-03-01T03:45:41;-2.00;1.00
5842;DHT22;2947;52.276;9.946;2023-03-01T03:48:09;-2.00;99.90
5842;DHT22;2947;52.276;9.946;2023-03-01T03:50:37;-1.90;99.90
5842;DHT22;2947;52.276;9.946;2023-03-01T03:53:09;-1.80;54.90
5842;DHT22;2947;52.276;9.946;2023-03-01T03:55:36;-1.80;1.00
5842;DHT22;2947;52.276;9.946;2023-03-01T03:58:05;-1.90;1.00
5842;DHT22;2947;52.276;9.946;2023-03-01T04:00:35;-1.90;99.90
5842;DHT22;2947;52.276;9.946;2023-03-01T04:03:02;-1.90;1.00
5842;DHT22;2947;52.276;9.946;2023-03-01T04:05:28;-1.90;1.00
5842;DHT22;2947;52.276;9.946;2023-03-01T04:07:54;-2.00;99.90
5842;DHT22;2947;52.276;9.946;2023-03-01T04:10:27;-2.00;99.90
5842;DHT22;2947;52.276;9.946;2023-03-01T04:12:57;-1.90;99.90
5842;DHT22;2947;52.276;9.946;2023-03-01T04:15:24;-1.90;1.00
5842;DHT22;2947;52.276;9.946;2023-03-01T04:17:52;-2.00;99.90
5842;DHT22;2947;52.276;9.946;2023-03-01T04:20:21;-2.00;1.00
5842;DHT22;2947;52.276;9.946;2023-03-01T04:22:59;-2.00;99.90
5842;DHT22;2947;52.276;9.946;2023-03-01T04:28:12;-2.10;13.80
5842;DHT22;2947;52.276;9.946;2023-03-01T04:30:38;-2.20;1.00
5842;DHT22;2947;52.276;9.946;2023-03-01T04:33:09;-2.20;93.70
5842;DHT22;2947;52.276;9.946;2023-03-01T04:35:36;-2.20;1.00
5842;DHT22;2947;52.276;9.946;2023-03-01T04:38:03;-2.20;46.20
5842;DHT22;2947;52.276;9.946;2023-03-01T04:40:29;-2.20;99.90
5842;DHT22;2947;52.276;9.946;2023-03-01T04:42:54;-2.30;1.00
5842;DHT22;2947;52.276;9.946;2023-03-01T04:45:20;-2.30;1.00
5842;DHT22;2947;52.276;9.946;2023-03-01T04:47:46;-2.40;99.90
5842;DHT22;2947;52.276;9.946;2023-03-01T04:50:15;-2.40;1.00
5842;DHT22;2947;52.276;9.946;2023-03-01T04:52:43;-2.50;1.00
5842;DHT22;2947;52.276;9.946;2023-03-01T04:55:09;-2.60;1.00
5842;DHT22;2947;52.276;9.946;2023-03-01T04:57:35;-2.60;1.00
5842;DHT22;2947;52.276;9.946;2023-03-01T05:00:02;-2.60;99.90
5842;DHT22;2947;52.276;9.946;2023-03-01T05:02:52;-2.70;99.90
5842;DHT22;2947;52.276;9.946;2023-03-01T05:05:24;-2.70;99.90
5842;DHT22;2947;52.276;9.946;2023-03-01T05:07:55;-2.70;99.90
5842;DHT22;2947;52.276;9.946;2023-03-01T05:10:23;-2.70;99.90
5842;DHT22;2947;52.276;9.946;2023-03-01T05:12:49;-2.70;99.90
5842;DHT22;2947;52.276;9.946;2023-03-01T05:15:15;-2.60;99.90
5842;DHT22;2947;52.276;9.946;2023-03-01T05:17:41;-2.80;99.90
5842;DHT22;2947;52.276;9.946;2023-03-01T05:20:07;-2.80;99.90
5842;DHT22;2947;52.276;9.946;2023-03-01T05:22:34;-2.70;99.90
5842;DHT22;2947;52.276;9.946;2023-03-01T05:25:03;-2.70;99.90
5842;DHT22;2947;52.276;9.946;2023-03-01T05:27:30;-2.70;86.30
5842;DHT22;2947;52.276;9.946;2023-03-01T05:29:56;-2.70;99.90
5842;DHT22;2947;52.276;9.946;2023-03-01T05:32:22;-2.70;1.00
5842;DHT22;2947;52.276;9.946;2023-03-01T05:34:47;-2.70;99.90
5842;DHT22;2947;52.276;9.946;2023-03-01T05:37:13;-2.70;99.90
5842;DHT22;2947;52.276;9.946;2023-03-01T05:39:39;-2.70;99.90
5842;DHT22;2947;52.276;9.946;2023-03-01T05:42:05;-2.70;99.90
5842;DHT22;2947;52.276;9.946;2023-03-01T05:44:31;-2.70;57.60
5842;DHT22;2947;52.276;9.946;2023-03-01T05:46:57;-2.70;99.90
5842;DHT22;2947;52.276;9.946;2023-03-01T05:49:22;-2.70;99.90
5842;DHT22;2947;52.276;9.946;2023-03-01T05:51:52;-2.70;99.90
5842;DHT22;2947;52.276;9.946;2023-03-01T05:54:20;-2.70;99.90
5842;DHT22;2947;52.276;9.946;2023-03-01T05:56:47;-2.70;99.90
5842;DHT22;2947;52.276;9.946;2023-03-01T05:59:12;-2.80;99.90
5842;DHT22;2947;52.276;9.946;2023-03-01T06:01:39;-2.80;1.00
5842;DHT22;2947;52.276;9.946;2023-03-01T06:04:05;-2.80;1.00
5842;DHT22;2947;52.276;9.946;2023-03-01T06:06:35;-2.80;99.90
5842;DHT22;2947;52.276;9.946;2023-03-01T06:09:06;-2.80;99.90
5842;DHT22;2947;52.276;9.946;2023-03-01T06:11:35;-2.80;99.90
5842;DHT22;2947;52.276;9.946;2023-03-01T06:14:01;-2.90;99.90
5842;DHT22;2947;52.276;9.946;2023-03-01T06:16:28;-2.90;99.90
5842;DHT22;2947;52.276;9.946;2023-03-01T06:18:53;-2.90;99.90
5842;DHT22;2947;52.276;9.946;2023-03-01T06:21:19;-2.90;99.90
5842;DHT22;2947;52.276;9.946;2023-03-01T06:23:45;-2.90;99.90
5842;DHT22;2947;52.276;9.946;2023-03-01T06:26:10;-3.00;99.90
5842;DHT22;2947;52.276;9.946;2023-03-01T06:28:36;-2.90;1.00
5842;DHT22;2947;52.276;9.946;2023-03-01T06:31:02;-2.90;1.00
5842;DHT22;2947;52.276;9.946;2023-03-01T06:33:28;-2.90;1.00
5842;DHT22;2947;52.276;9.946;2023-03-01T06:35:56;-2.80;1.00
5842;DHT22;2947;52.276;9.946;2023-03-01T06:38:23;-2.90;1.00
5842;DHT22;2947;52.276;9.946;2023-03-01T06:40:53;-2.80;1.00
5842;DHT22;2947;52.276;9.946;2023-03-01T06:43:20;-2.90;1.00
5842;DHT22;2947;52.276;9.946;2023-03-01T06:45:46;-2.90;1.00
5842;DHT22;2947;52.276;9.946;2023-03-01T06:48:12;-2.80;1.00
5842;DHT22;2947;52.276;9.946;2023-03-01T06:50:37;-2.80;1.00
5842;DHT22;2947;52.276;9.946;2023-03-01T06:53:03;-2.70;1.00
5842;DHT22;2947;52.276;9.946;2023-03-01T06:55:30;-2.70;1.00
5842;DHT22;2947;52.276;9.946;2023-03-01T06:57:57;-2.70;1.00
5842;DHT22;2947;52.276;9.946;2023-03-01T07:00:24;-2.60;1.00
5842;DHT22;2947;52.276;9.946;2023-03-01T07:02:51;-2.60;1.00
5842;DHT22;2947;52.276;9.946;2023-03-01T07:05:17;-2.50;1.00
5842;DHT22;2947;52.276;9.946;2023-03-01T07:07:42;-2.40;1.00
5842;DHT22;2947;52.276;9.946;2023-03-01T07:10:09;-2.40;1.00
5842;DHT22;2947;52.276;9.946;2023-03-01T07:12:35;-2.30;1.00
5842;DHT22;2947;52.276;9.946;2023-03-01T07:15:01;-2.30;1.00
5842;DHT22;2947;52.276;9.946;2023-03-01T07:17:26;-2.20;1.00
5842;DHT22;2947;52.276;9.946;2023-03-01T07:19:52;-2.10;1.00
5842;DHT22;2947;52.276;9.946;2023-03-01T07:22:18;-2.10;1.00
5842;DHT22;2947;52.276;9.946;2023-03-01T07:24:43;-2.00;1.00
5842;DHT22;2947;52.276;9.946;2023-03-01T07:27:09;-1.90;1.00
5842;DHT22;2947;52.276;9.946;2023-03-01T07:29:35;-1.80;1.00
5842;DHT22;2947;52.276;9.946;2023-03-01T07:32:05;-1.70;1.00
5842;DHT22;2947;52.276;9.946;2023-03-01T07:34:31;-1.60;1.00
5842;DHT22;2947;52.276;9.946;2023-03-01T07:36:57;-1.60;1.00
5842;DHT22;2947;52.276;9.946;2023-03-01T07:39:24;-1.40;1.00
5842;DHT22;2947;52.276;9.946;2023-03-01T07:41:50;-1.30;1.00
5842;DHT22;2947;52.276;9.946;2023-03-01T07:44:16;-1.20;1.00
5842;DHT22;2947;52.276;9.946;2023-03-01T07:46:42;-1.10;1.00
5842;DHT22;2947;52.276;9.946;2023-03-01T07:49:09;-1.00;1.00
5842;DHT22;2947;52.276;9.946;2023-03-01T07:51:34;-1.00;1.00
5842;DHT22;2947;52.276;9.946;2023-03-01T07:54:00;-0.90;1.00
5842;DHT22;2947;52.276;9.946;2023-03-01T07:56:26;-0.80;1.00
5842;DHT22;2947;52.276;9.946;2023-03-01T07:58:51;-0.70;99.90
5842;DHT22;2947;52.276;9.946;2023-03-01T08:01:19;-0.60;99.90
5842;DHT22;2947;52.276;9.946;2023-03-01T08:03:45;-0.50;99.90
5842;DHT22;2947;52.276;9.946;2023-03-01T08:06:13;-0.50;1.00
5842;DHT22;2947;52.276;9.946;2023-03-01T08:08:40;-0.40;1.00
5842;DHT22;2947;52.276;9.946;2023-03-01T08:11:07;-0.30;99.90
5842;DHT22;2947;52.276;9.946;2023-03-01T08:13:34;-0.20;99.90
5842;DHT22;2947;52.276;9.946;2023-03-01T08:16:01;-0.10;1.00
5842;DHT22;2947;52.276;9.946;2023-03-01T08:18:28;0.00;1.00
5842;DHT22;2947;52.276;9.946;2023-03-01T08:20:54;0.00;99.90
5842;DHT22;2947;52.276;9.946;2023-03-01T08:23:19;0.20;1.00
5842;DHT22;2947;52.276;9.946;2023-03-01T08:25:45;0.20;99.90
5842;DHT22;2947;52.276;9.946;2023-03-01T08:28:11;0.30;1.00
5842;DHT22;2947;52.276;9.946;2023-03-01T08:30:36;0.40;1.00
5842;DHT22;2947;52.276;9.946;2023-03-01T08:33:02;0.60;99.90
5842;DHT22;2947;52.276;9.946;2023-03-01T08:35:27;0.60;99.90
5842;DHT22;2947;52.276;9.946;2023-03-01T08:37:53;0.70;99.90
5842;DHT22;2947;52.276;9.946;2023-03-01T08:40:19;0.80;1.00
5842;DHT22;2947;52.276;9.946;2023-03-01T08:42:44;0.90;1.00
5842;DHT22;2947;52.276;9.946;2023-03-01T08:45:11;1.10;1.00
5842;DHT22;2947;52.276;9.946;2023-03-01T08:47:37;1.10;99.90
5842;DHT22;2947;52.276;9.946;2023-03-01T08:50:04;1.20;99.90
5842;DHT22;2947;52.276;9.946;2023-03-01T08:52:32;1.30;12.70
5842;DHT22;2947;52.276;9.946;2023-03-01T08:54:58;1.50;99.90
5842;DHT22;2947;52.276;9.946;2023-03-01T08:57:24;1.60;99.90
5842;DHT22;2947;52.276;9.946;2023-03-01T08:59:49;1.70;99.90
5842;DHT22;2947;52.276;9.946;2023-03-01T09:02:18;1.80;99.90
5842;DHT22;2947;52.276;9.946;2023-03-01T09:04:44;2.00;99.90
5842;DHT22;2947;52.276;9.946;2023-03-01T09:07:10;2.10;1.00
5842;DHT22;2947;52.276;9.946;2023-03-01T09:09:36;2.20;99.90
5842;DHT22;2947;52.276;9.946;2023-03-01T09:12:03;2.30;43.20
5842;DHT22;2947;52.276;9.946;2023-03-01T09:14:29;2.40;1.00
5842;DHT22;2947;52.276;9.946;2023-03-01T09:16:55;2.60;99.90
5842;DHT22;2947;52.276;9.946;2023-03-01T09:19:21;2.60;99.90
5842;DHT22;2947;52.276;9.946;2023-03-01T09:21:47;2.70;99.90
5842;DHT22;2947;52.276;9.946;2023-03-01T09:24:21;2.70;96.20
5842;DHT22;2947;52.276;9.946;2023-03-01T09:26:48;2.90;82.00
5842;DHT22;2947;52.276;9.946;2023-03-01T09:29:14;2.90;12.90
5842;DHT22;2947;52.276;9.946;2023-03-01T09:31:42;2.90;1.00
5842;DHT22;2947;52.276;9.946;2023-03-01T09:34:08;3.00;1.00
5842;DHT22;2947;52.276;9.946;2023-03-01T09:36:34;3.10;1.00
5842;DHT22;2947;52.276;9.946;2023-03-01T09:39:01;3.10;1.00
5842;DHT22;2947;52.276;9.946;2023-03-01T09:41:53;3.10;1.00
5842;DHT22;2947;52.276;9.946;2023-03-01T09:47:03;3.30;1.00
5842;DHT22;2947;52.276;9.946;2023-03-01T09:49:35;3.30;1.00
5842;DHT22;2947;52.276;9.946;2023-03-01T09:52:23;3.30;1.00
5842;DHT22;2947;52.276;9.946;2023-03-01T09:54:54;3.20;1.00
5842;DHT22;2947;52.276;9.946;2023-03-01T10:00:30;3.10;1.00
5842;DHT22;2947;52.276;9.946;2023-03-01T10:05:59;3.20;1.00
5842;DHT22;2947;52.276;9.946;2023-03-01T10:08:34;3.20;1.00
5842;DHT22;2947;52.276;9.946;2023-03-01T10:11:05;3.20;1.00
5842;DHT22;2947;52.276;9.946;2023-03-01T10:16:38;3.20;1.00
5842;DHT22;2947;52.276;9.946;2023-03-01T10:19:12;3.30;1.00
5842;DHT22;2947;52.276;9.946;2023-03-01T10:21:45;3.40;1.00
5842;DHT22;2947;52.276;9.946;2023-03-01T10:24:17;3.40;1.00
5842;DHT22;2947;52.276;9.946;2023-03-01T10:26:58;3.50;1.00
5842;DHT22;2947;52.276;9.946;2023-03-01T10:32:37;3.80;1.00
5842;DHT22;2947;52.276;9.946;2023-03-01T10:38:12;4.20;1.00
5842;DHT22;2947;52.276;9.946;2023-03-01T10:43:26;4.40;99.90
5842;DHT22;2947;52.276;9.946;2023-03-01T10:45:55;4.50;99.90
5842;DHT22;2947;52.276;9.946;2023-03-01T10:48:22;4.60;99.90
5842;DHT22;2947;52.276;9.946;2023-03-01T10:53:32;4.80;99.90
5842;DHT22;2947;52.276;9.946;2023-03-01T10:58:31;5.20;99.90
5842;DHT22;2947;52.276;9.946;2023-03-01T11:01:00;5.30;99.90
5842;DHT22;2947;52.276;9.946;2023-03-01T11:03:34;5.40;99.90
5842;DHT22;2947;52.276;9.946;2023-03-01T11:11:13;5.70;99.90
5842;DHT22;2947;52.276;9.946;2023-03-01T11:13:55;5.70;99.90
5842;DHT22;2947;52.276;9.946;2023-03-01T11:16:37;5.80;99.90
5842;DHT22;2947;52.276;9.946;2023-03-01T11:24:16;6.20;99.90
5842;DHT22;2947;52.276;9.946;2023-03-01T11:26:46;6.20;99.90
5842;DHT22;2947;52.276;9.946;2023-03-01T11:29:42;6.30;99.90
5842;DHT22;2947;52.276;9.946;2023-03-01T11:32:13;6.40;99.90
5842;DHT22;2947;52.276;9.946;2023-03-01T11:34:55;6.50;99.90
5842;DHT22;2947;52.276;9.946;2023-03-01T11:43:00;6.80;99.90
5842;DHT22;2947;52.276;9.946;2023-03-01T11:45:52;6.80;99.90
5842;DHT22;2947;52.276;9.946;2023-03-01T11:57:41;7.00;99.90
5842;DHT22;2947;52.276;9.946;2023-03-01T12:09:02;7.20;99.90
5842;DHT22;2947;52.276;9.946;2023-03-01T12:11:41;7.40;99.90
5842;DHT22;2947;52.276;9.946;2023-03-01T12:14:33;7.40;99.90
5842;DHT22;2947;52.276;9.946;2023-03-01T12:17:32;7.50;99.90
5842;DHT22;2947;52.276;9.946;2023-03-01T12:20:18;7.50;99.90
5842;DHT22;2947;52.276;9.946;2023-03-01T12:25:41;7.50;99.90
5842;DHT22;2947;52.276;9.946;2023-03-01T12:31:16;7.60;99.90
5842;DHT22;2947;52.276;9.946;2023-03-01T12:36:56;7.60;99.90
5842;DHT22;2947;52.276;9.946;2023-03-01T12:46:04;8.00;99.90
5842;DHT22;2947;52.276;9.946;2023-03-01T12:48:39;7.90;99.90
5842;DHT22;2947;52.276;9.946;2023-03-01T12:51:23;8.00;99.90
5842;DHT22;2947;52.276;9.946;2023-03-01T12:53:53;7.90;99.90
5842;DHT22;2947;52.276;9.946;2023-03-01T12:56:24;8.10;99.90
5842;DHT22;2947;52.276;9.946;2023-03-01T12:59:01;8.20;99.90
5842;DHT22;2947;52.276;9.946;2023-03-01T13:04:38;8.20;99.90
5842;DHT22;2947;52.276;9.946;2023-03-01T13:07:34;8.30;99.90
5842;DHT22;2947;52.276;9.946;2023-03-01T13:17:56;8.20;99.90
5842;DHT22;2947;52.276;9.946;2023-03-01T13:20:31;8.30;99.90
5842;DHT22;2947;52.276;9.946;2023-03-01T13:26:05;8.40;99.90
5842;DHT22;2947;52.276;9.946;2023-03-01T13:28:51;8.40;99.90
5842;DHT22;2947;52.276;9.946;2023-03-01T13:33:52;8.10;99.90
5842;DHT22;2947;52.276;9.946;2023-03-01T13:39:02;7.90;99.90
5842;DHT22;2947;52.276;9.946;2023-03-01T13:47:01;7.80;99.90
5842;DHT22;2947;52.276;9.946;2023-03-01T13:49:43;7.80;99.90
5842;DHT22;2947;52.276;9.946;2023-03-01T13:55:17;7.90;99.90
5842;DHT22;2947;52.276;9.946;2023-03-01T13:57:51;7.70;99.90
5842;DHT22;2947;52.276;9.946;2023-03-01T14:00:36;7.50;99.90
5842;DHT22;2947;52.276;9.946;2023-03-01T14:03:18;7.50;99.90
5842;DHT22;2947;52.276;9.946;2023-03-01T14:06:03;7.40;99.90
5842;DHT22;2947;52.276;9.946;2023-03-01T14:08:35;7.20;99.90
5842;DHT22;2947;52.276;9.946;2023-03-01T14:11:34;7.20;99.90
5842;DHT22;2947;52.276;9.946;2023-03-01T14:20:00;7.10;99.90
5842;DHT22;2947;52.276;9.946;2023-03-01T14:22:34;7.10;99.90
5842;DHT22;2947;52.276;9.946;2023-03-01T14:25:03;7.00;99.90
5842;DHT22;2947;52.276;9.946;2023-03-01T14:27:39;7.00;99.90
5842;DHT22;2947;52.276;9.946;2023-03-01T14:30:15;7.00;99.90
5842;DHT22;2947;52.276;9.946;2023-03-01T14:32:56;7.00;99.90
5842;DHT22;2947;52.276;9.946;2023-03-01T14:35:29;7.00;99.90
5842;DHT22;2947;52.276;9.946;2023-03-01T14:37:56;7.00;99.90
5842;DHT22;2947;52.276;9.946;2023-03-01T14:40:32;7.00;99.90
5842;DHT22;2947;52.276;9.946;2023-03-01T14:43:11;7.00;99.90
5842;DHT22;2947;52.276;9.946;2023-03-01T14:45:47;7.00;99.90
5842;DHT22;2947;52.276;9.946;2023-03-01T14:48:15;7.00;99.90
5842;DHT22;2947;52.276;9.946;2023-03-01T14:50:42;7.00;99.90
5842;DHT22;2947;52.276;9.946;2023-03-01T14:53:25;7.00;99.90
5842;DHT22;2947;52.276;9.946;2023-03-01T14:55:55;7.00;99.90
5842;DHT22;2947;52.276;9.946;2023-03-01T14:58:25;7.00;99.90
5842;DHT22;2947;52.276;9.946;2023-03-01T15:01:00;7.00;99.90
5842;DHT22;2947;52.276;9.946;2023-03-01T15:03:33;7.00;99.90
5842;DHT22;2947;52.276;9.946;2023-03-01T15:06:05;7.00;99.90
5842;DHT22;2947;52.276;9.946;2023-03-01T15:08:32;6.90;99.90
5842;DHT22;2947;52.276;9.946;2023-03-01T15:11:17;7.00;99.90
5842;DHT22;2947;52.276;9.946;2023-03-01T15:13:50;6.90;99.90
5842;DHT22;2947;52.276;9.946;2023-03-01T15:19:02;6.80;99.90
5842;DHT22;2947;52.276;9.946;2023-03-01T15:21:37;6.90;99.90
5842;DHT22;2947;52.276;9.946;2023-03-01T15:26:52;6.80;99.90
5842;DHT22;2947;52.276;9.946;2023-03-01T15:29:22;6.80;99.90
5842;DHT22;2947;52.276;9.946;2023-03-01T15:32:00;6.80;99.90
5842;DHT22;2947;52.276;9.946;2023-03-01T15:34:34;6.80;99.90
5842;DHT22;2947;52.276;9.946;2023-03-01T15:37:04;6.80;99.90
5842;DHT22;2947;52.276;9.946;2023-03-01T15:39:42;6.80;99.90
5842;DHT22;2947;52.276;9.946;2023-03-01T15:42:11;6.70;99.90
5842;DHT22;2947;52.276;9.946;2023-03-01T15:44:41;6.70;99.90
5842;DHT22;2947;52.276;9.946;2023-03-01T15:47:40;6.80;99.90
5842;DHT22;2947;52.276;9.946;2023-03-01T15:50:25;6.70;99.90
5842;DHT22;2947;52.276;9.946;2023-03-01T15:52:54;6.60;99.90
5842;DHT22;2947;52.276;9.946;2023-03-01T15:55:21;6.60;99.90
5842;DHT22;2947;52.276;9.946;2023-03-01T15:57:49;6.60;99.90
5842;DHT22;2947;52.276;9.946;2023-03-01T16:00:16;6.60;99.90
5842;DHT22;2947;52.276;9.946;2023-03-01T16:02:43;6.60;99.90
5842;DHT22;2947;52.276;9.946;2023-03-01T16:05:25;6.60;99.90
5842;DHT22;2947;52.276;9.946;2023-03-01T16:07:53;6.60;99.90
5842;DHT22;2947;52.276;9.946;2023-03-01T16:10:19;6.60;99.90
5842;DHT22;2947;52.276;9.946;2023-03-01T16:12:45;6.50;99.90
5842;DHT22;2947;52.276;9.946;2023-03-01T16:15:24;6.50;99.90
5842;DHT22;2947;52.276;9.946;2023-03-01T16:17:52;6.50;99.90
5842;DHT22;2947;52.276;9.946;2023-03-01T16:20:18;6.50;99.90
5842;DHT22;2947;52.276;9.946;2023-03-01T16:22:45;6.40;99.90
5842;DHT22;2947;52.276;9.946;2023-03-01T16:25:13;6.40;99.90
5842;DHT22;2947;52.276;9.946;2023-03-01T16:27:45;6.40;99.90
5842;DHT22;2947;52.276;9.946;2023-03-01T16:30:13;6.40;99.90
5842;DHT22;2947;52.276;9.946;2023-03-01T16:32:41;6.30;99.90
5842;DHT22;2947;52.276;9.946;2023-03-01T16:35:10;6.40;99.90
5842;DHT22;2947;52.276;9.946;2023-03-01T16:37:37;6.30;99.90
5842;DHT22;2947;52.276;9.946;2023-03-01T16:40:04;6.30;99.90
5842;DHT22;2947;52.276;9.946;2023-03-01T16:42:35;6.20;99.90
5842;DHT22;2947;52.276;9.946;2023-03-01T16:45:00;6.20;99.90
5842;DHT22;2947;52.276;9.946;2023-03-01T16:47:27;6.20;99.90
5842;DHT22;2947;52.276;9.946;2023-03-01T16:49:53;6.10;99.90
5842;DHT22;2947;52.276;9.946;2023-03-01T16:52:20;6.00;99.90
5842;DHT22;2947;52.276;9.946;2023-03-01T16:54:47;6.00;99.90
5842;DHT22;2947;52.276;9.946;2023-03-01T16:57:12;6.00;99.90
5842;DHT22;2947;52.276;9.946;2023-03-01T16:59:38;5.90;99.90
5842;DHT22;2947;52.276;9.946;2023-03-01T17:02:04;5.90;99.90
5842;DHT22;2947;52.276;9.946;2023-03-01T17:04:35;5.90;99.90
5842;DHT22;2947;52.276;9.946;2023-03-01T17:07:00;5.80;99.90
5842;DHT22;2947;52.276;9.946;2023-03-01T17:09:26;5.80;99.90
5842;DHT22;2947;52.276;9.946;2023-03-01T17:11:52;5.70;99.90
5842;DHT22;2947;52.276;9.946;2023-03-01T17:14:17;5.70;99.90
5842;DHT22;2947;52.276;9.946;2023-03-01T17:16:43;5.60;99.90
5842;DHT22;2947;52.276;9.946;2023-03-01T17:19:10;5.60;99.90
5842;DHT22;2947;52.276;9.946;2023-03-01T17:21:36;5.50;99.90
5842;DHT22;2947;52.276;9.946;2023-03-01T17:24:02;5.50;99.90
5842;DHT22;2947;52.276;9.946;2023-03-01T17:26:28;5.50;99.90
5842;DHT22;2947;52.276;9.946;2023-03-01T17:28:55;5.50;99.90
5842;DHT22;2947;52.276;9.946;2023-03-01T17:31:22;5.40;99.90
5842;DHT22;2947;52.276;9.946;2023-03-01T17:33:48;5.40;99.90
5842;DHT22;2947;52.276;9.946;2023-03-01T17:36:14;5.30;99.90
5842;DHT22;2947;52.276;9.946;2023-03-01T17:38:40;5.30;99.90
5842;DHT22;2947;52.276;9.946;2023-03-01T17:41:06;5.20;99.90
5842;DHT22;2947;52.276;9.946;2023-03-01T17:43:32;5.20;99.90
5842;DHT22;2947;52.276;9.946;2023-03-01T17:45:59;5.10;99.90
5842;DHT22;2947;52.276;9.946;2023-03-01T17:48:26;5.00;99.90
5842;DHT22;2947;52.276;9.946;2023-03-01T17:50:52;4.90;99.90
5842;DHT22;2947;52.276;9.946;2023-03-01T17:53:18;4.90;99.90
5842;DHT22;2947;52.276;9.946;2023-03-01T17:55:44;4.80;99.90
5842;DHT22;2947;52.276;9.946;2023-03-01T17:58:12;4.80;99.90
5842;DHT22;2947;52.276;9.946;2023-03-01T18:00:38;4.80;99.90
5842;DHT22;2947;52.276;9.946;2023-03-01T18:03:04;4.80;99.90
5842;DHT22;2947;52.276;9.946;2023-03-01T18:05:32;4.80;99.90
5842;DHT22;2947;52.276;9.946;2023-03-01T18:07:59;4.70;99.90
5842;DHT22;2947;52.276;9.946;2023-03-01T18:10:25;4.60;99.90
5842;DHT22;2947;52.276;9.946;2023-03-01T18:12:51;4.60;99.90
5842;DHT22;2947;52.276;9.946;2023-03-01T18:15:17;4.50;99.90
5842;DHT22;2947;52.276;9.946;2023-03-01T18:17:43;4.50;99.90
5842;DHT22;2947;52.276;9.946;2023-03-01T18:20:09;4.50;99.90
5842;DHT22;2947;52.276;9.946;2023-03-01T18:22:37;4.50;99.90
5842;DHT22;2947;52.276;9.946;2023-03-01T18:25:04;4.40;99.90
5842;DHT22;2947;52.276;9.946;2023-03-01T18:27:30;4.40;99.90
5842;DHT22;2947;52.276;9.946;2023-03-01T18:29:56;4.30;99.90
5842;DHT22;2947;52.276;9.946;2023-03-01T18:32:22;4.30;99.90
5842;DHT22;2947;52.276;9.946;2023-03-01T18:34:48;4.40;99.90